sensor_id;sensor_type;location;lat;lon;timestamp;P1;durP1;ratioP1;P2;durP2;ratioP2
13463;SDS011;6804;48.774;9.174;2022-08-02T00:02:07;1.90;;;1.57;;
13463;SDS011;6804;48.774;9.174;2022-08-02T00:04:39;1.97;;;1.50;;
13463;SDS011;6804;48.774;9.174;2022-08-02T00:07:06;2.67;;;1.70;;
13463;SDS011;6804;48.774;9.174;2022-08-02T00:09:34;3.03;;;1.53;;
13463;SDS011;6804;48.774;9.174;2022-08-02T00:12:02;2.20;;;1.70;;
13463;SDS011;6804;48.774;9.174;2022-08-02T00:14:29;2.90;;;1.90;;
13463;SDS011;6804;48.774;9.174;2022-08-02T00:17:02;2.30;;;1.90;;
13463;SDS011;6804;48.774;9.174;2022-08-02T00:19:30;2.40;;;1.70;;
13463;SDS011;6804;48.774;9.174;2022-08-02T00:22:01;3.00;;;1.83;;
13463;SDS011;6804;48.774;9.174;2022-08-02T00:24:34;2.67;;;1.90;;
13463;SDS011;6804;48.774;9.174;2022-08-02T00:27:01;2.03;;;1.80;;
13463;SDS011;6804;48.774;9.174;2022-08-02T00:29:30;2.30;;;2.10;;
13463;SDS011;6804;48.774;9.174;2022-08-02T00:31:58;2.63;;;2.00;;
13463;SDS011;6804;48.774;9.174;2022-08-02T00:34:25;3.63;;;2.00;;
13463;SDS011;6804;48.774;9.174;2022-08-02T00:37:01;3.23;;;2.20;;
13463;SDS011;6804;48.774;9.174;2022-08-02T00:39:31;2.60;;;1.90;;
13463;SDS011;6804;48.774;9.174;2022-08-02T00:41:59;2.67;;;2.40;;
13463;SDS011;6804;48.774;9.174;2022-08-02T00:44:26;3.77;;;2.30;;
13463;SDS011;6804;48.774;9.174;2022-08-02T00:46:56;2.77;;;2.30;;
13463;SDS011;6804;48.774;9.174;2022-08-02T00:49:26;3.10;;;1.83;;
13463;SDS011;6804;48.774;9.174;2022-08-02T00:51:53;3.63;;;1.97;;
13463;SDS011;6804;48.774;9.174;2022-08-02T00:54:25;2.70;;;2.10;;
13463;SDS011;6804;48.774;9.174;2022-08-02T00:56:52;3.80;;;2.33;;
13463;SDS011;6804;48.774;9.174;2022-08-02T00:59:22;2.50;;;2.10;;
13463;SDS011;6804;48.774;9.174;2022-08-02T01:01:55;2.80;;;2.60;;
13463;SDS011;6804;48.774;9.174;2022-08-02T01:04:22;2.77;;;2.07;;
13463;SDS011;6804;48.774;9.174;2022-08-02T01:06:49;2.47;;;2.27;;
13463;SDS011;6804;48.774;9.174;2022-08-02T01:09:17;2.73;;;2.17;;
13463;SDS011;6804;48.774;9.174;2022-08-02T01:11:49;2.50;;;2.00;;
13463;SDS011;6804;48.774;9.174;2022-08-02T01:14:19;1.93;;;1.83;;
13463;SDS011;6804;48.774;9.174;2022-08-02T01:16:51;5.00;;;2.07;;
13463;SDS011;6804;48.774;9.174;2022-08-02T01:19:30;2.17;;;1.97;;
13463;SDS011;6804;48.774;9.174;2022-08-02T01:25:07;1.87;;;1.77;;
13463;SDS011;6804;48.774;9.174;2022-08-02T01:28:04;2.43;;;2.03;;
13463;SDS011;6804;48.774;9.174;2022-08-02T01:30:43;3.03;;;2.10;;
13463;SDS011;6804;48.774;9.174;2022-08-02T01:33:18;1.80;;;1.70;;
13463;SDS011;6804;48.774;9.174;2022-08-02T01:35:49;2.17;;;1.90;;
13463;SDS011;6804;48.774;9.174;2022-08-02T01:38:25;2.10;;;1.83;;
13463;SDS011;6804;48.774;9.174;2022-08-02T01:41:03;2.40;;;1.90;;
13463;SDS011;6804;48.774;9.174;2022-08-02T01:43:34;2.57;;;2.00;;
13463;SDS011;6804;48.774;9.174;2022-08-02T01:46:03;2.00;;;1.60;;
13463;SDS011;6804;48.774;9.174;2022-08-02T01:48:32;2.40;;;2.00;;
13463;SDS011;6804;48.774;9.174;2022-08-02T01:51:00;1.90;;;1.80;;
13463;SDS011;6804;48.774;9.174;2022-08-02T01:53:31;2.23;;;2.00;;
13463;SDS011;6804;48.774;9.174;2022-08-02T01:55:59;2.57;;;2.00;;
13463;SDS011;6804;48.774;9.174;2022-08-02T01:58:29;2.07;;;1.87;;
13463;SDS011;6804;48.774;9.174;2022-08-02T02:01:05;2.73;;;1.90;;
13463;SDS011;6804;48.774;9.174;2022-08-02T02:03:34;2.00;;;1.80;;
13463;SDS011;6804;48.774;9.174;2022-08-02T02:06:06;2.67;;;1.90;;
13463;SDS011;6804;48.774;9.174;2022-08-02T02:08:36;1.90;;;1.60;;
13463;SDS011;6804;48.774;9.174;2022-08-02T02:11:05;2.20;;;2.00;;
13463;SDS011;6804;48.774;9.174;2022-08-02T02:13:37;1.87;;;1.77;;
13463;SDS011;6804;48.774;9.174;2022-08-02T02:16:08;2.10;;;1.90;;
13463;SDS011;6804;48.774;9.174;2022-08-02T02:18:38;2.20;;;1.73;;
13463;SDS011;6804;48.774;9.174;2022-08-02T02:21:07;1.90;;;1.50;;
13463;SDS011;6804;48.774;9.174;2022-08-02T02:23:35;1.80;;;1.70;;
13463;SDS011;6804;48.774;9.174;2022-08-02T02:26:05;2.90;;;1.83;;
13463;SDS011;6804;48.774;9.174;2022-08-02T02:28:35;2.13;;;1.83;;
13463;SDS011;6804;48.774;9.174;2022-08-02T02:31:05;1.70;;;1.60;;
13463;SDS011;6804;48.774;9.174;2022-08-02T02:33:36;2.67;;;1.80;;
13463;SDS011;6804;48.774;9.174;2022-08-02T02:36:08;1.77;;;1.60;;
13463;SDS011;6804;48.774;9.174;2022-08-02T02:38:37;1.73;;;1.63;;
13463;SDS011;6804;48.774;9.174;2022-08-02T02:41:09;3.67;;;1.90;;
13463;SDS011;6804;48.774;9.174;2022-08-02T02:43:40;2.27;;;1.60;;
13463;SDS011;6804;48.774;9.174;2022-08-02T02:46:11;1.60;;;1.50;;
13463;SDS011;6804;48.774;9.174;2022-08-02T02:48:44;1.93;;;1.80;;
13463;SDS011;6804;48.774;9.174;2022-08-02T02:51:12;2.00;;;1.60;;
13463;SDS011;6804;48.774;9.174;2022-08-02T02:53:40;1.93;;;1.73;;
13463;SDS011;6804;48.774;9.174;2022-08-02T02:56:09;2.77;;;1.67;;
13463;SDS011;6804;48.774;9.174;2022-08-02T02:58:40;2.13;;;1.73;;
13463;SDS011;6804;48.774;9.174;2022-08-02T03:01:08;2.40;;;1.67;;
13463;SDS011;6804;48.774;9.174;2022-08-02T03:03:52;2.90;;;1.77;;
13463;SDS011;6804;48.774;9.174;2022-08-02T03:06:26;2.23;;;1.57;;
13463;SDS011;6804;48.774;9.174;2022-08-02T03:08:54;2.00;;;1.80;;
13463;SDS011;6804;48.774;9.174;2022-08-02T03:11:21;3.93;;;1.80;;
13463;SDS011;6804;48.774;9.174;2022-08-02T03:13:56;1.97;;;1.70;;
13463;SDS011;6804;48.774;9.174;2022-08-02T03:16:28;2.43;;;1.70;;
13463;SDS011;6804;48.774;9.174;2022-08-02T03:18:56;2.77;;;1.43;;
13463;SDS011;6804;48.774;9.174;2022-08-02T03:21:26;2.57;;;1.60;;
13463;SDS011;6804;48.774;9.174;2022-08-02T03:23:54;2.37;;;1.73;;
13463;SDS011;6804;48.774;9.174;2022-08-02T03:26:21;3.30;;;1.63;;
13463;SDS011;6804;48.774;9.174;2022-08-02T03:28:58;2.03;;;1.70;;
13463;SDS011;6804;48.774;9.174;2022-08-02T03:31:25;1.73;;;1.63;;
13463;SDS011;6804;48.774;9.174;2022-08-02T03:33:53;2.53;;;1.70;;
13463;SDS011;6804;48.774;9.174;2022-08-02T03:36:27;3.57;;;1.67;;
13463;SDS011;6804;48.774;9.174;2022-08-02T03:38:57;1.97;;;1.60;;
13463;SDS011;6804;48.774;9.174;2022-08-02T03:41:25;2.93;;;1.77;;
13463;SDS011;6804;48.774;9.174;2022-08-02T03:43:57;1.50;;;1.40;;
13463;SDS011;6804;48.774;9.174;2022-08-02T03:46:25;1.80;;;1.70;;
13463;SDS011;6804;48.774;9.174;2022-08-02T03:48:59;4.03;;;1.63;;
13463;SDS011;6804;48.774;9.174;2022-08-02T03:51:29;2.73;;;1.63;;
13463;SDS011;6804;48.774;9.174;2022-08-02T03:53:59;1.87;;;1.70;;
13463;SDS011;6804;48.774;9.174;2022-08-02T03:56:30;2.47;;;1.87;;
13463;SDS011;6804;48.774;9.174;2022-08-02T03:59:04;2.97;;;1.80;;
13463;SDS011;6804;48.774;9.174;2022-08-02T04:01:34;2.00;;;1.90;;
13463;SDS011;6804;48.774;9.174;2022-08-02T04:04:02;2.77;;;1.80;;
13463;SDS011;6804;48.774;9.174;2022-08-02T04:06:36;3.23;;;1.97;;
13463;SDS011;6804;48.774;9.174;2022-08-02T04:09:09;2.10;;;1.73;;
13463;SDS011;6804;48.774;9.174;2022-08-02T04:11:36;2.43;;;1.97;;
13463;SDS011;6804;48.774;9.174;2022-08-02T04:14:09;3.60;;;2.00;;
13463;SDS011;6804;48.774;9.174;2022-08-02T04:16:39;2.23;;;2.00;;
13463;SDS011;6804;48.774;9.174;2022-08-02T04:19:09;2.80;;;2.10;;
13463;SDS011;6804;48.774;9.174;2022-08-02T04:21:43;2.03;;;1.83;;
13463;SDS011;6804;48.774;9.174;2022-08-02T04:24:12;3.07;;;1.93;;
13463;SDS011;6804;48.774;9.174;2022-08-02T04:26:51;1.83;;;1.73;;
13463;SDS011;6804;48.774;9.174;2022-08-02T04:29:23;3.13;;;1.90;;
13463;SDS011;6804;48.774;9.174;2022-08-02T04:31:57;2.23;;;1.90;;
13463;SDS011;6804;48.774;9.174;2022-08-02T04:34:26;3.10;;;2.00;;
13463;SDS011;6804;48.774;9.174;2022-08-02T04:36:57;2.00;;;1.80;;
13463;SDS011;6804;48.774;9.174;2022-08-02T04:39:28;2.80;;;2.17;;
13463;SDS011;6804;48.774;9.174;2022-08-02T04:41:55;3.10;;;2.30;;
13463;SDS011;6804;48.774;9.174;2022-08-02T04:44:23;1.80;;;1.70;;
13463;SDS011;6804;48.774;9.174;2022-08-02T04:46:53;2.53;;;1.80;;
13463;SDS011;6804;48.774;9.174;2022-08-02T04:49:20;2.23;;;1.80;;
13463;SDS011;6804;48.774;9.174;2022-08-02T04:51:47;3.67;;;1.90;;
13463;SDS011;6804;48.774;9.174;2022-08-02T04:54:19;2.00;;;1.80;;
13463;SDS011;6804;48.774;9.174;2022-08-02T04:56:49;4.37;;;2.13;;
13463;SDS011;6804;48.774;9.174;2022-08-02T04:59:17;2.20;;;1.83;;
13463;SDS011;6804;48.774;9.174;2022-08-02T05:01:48;2.73;;;2.03;;
13463;SDS011;6804;48.774;9.174;2022-08-02T05:04:21;3.17;;;1.90;;
13463;SDS011;6804;48.774;9.174;2022-08-02T05:06:51;2.73;;;1.80;;
13463;SDS011;6804;48.774;9.174;2022-08-02T05:09:20;2.60;;;1.97;;
13463;SDS011;6804;48.774;9.174;2022-08-02T05:11:47;6.03;;;2.23;;
13463;SDS011;6804;48.774;9.174;2022-08-02T05:14:18;2.97;;;2.10;;
13463;SDS011;6804;48.774;9.174;2022-08-02T05:16:48;3.03;;;2.10;;
13463;SDS011;6804;48.774;9.174;2022-08-02T05:19:18;2.20;;;1.83;;
13463;SDS011;6804;48.774;9.174;2022-08-02T05:21:46;4.20;;;1.90;;
13463;SDS011;6804;48.774;9.174;2022-08-02T05:24:16;3.43;;;1.87;;
13463;SDS011;6804;48.774;9.174;2022-08-02T05:26:50;3.07;;;1.70;;
13463;SDS011;6804;48.774;9.174;2022-08-02T05:29:18;3.90;;;2.10;;
13463;SDS011;6804;48.774;9.174;2022-08-02T05:31:47;3.20;;;2.08;;
13463;SDS011;6804;48.774;9.174;2022-08-02T05:34:18;3.63;;;1.80;;
13463;SDS011;6804;48.774;9.174;2022-08-02T05:36:49;3.50;;;2.30;;
13463;SDS011;6804;48.774;9.174;2022-08-02T05:39:23;3.50;;;1.98;;
13463;SDS011;6804;48.774;9.174;2022-08-02T05:41:50;2.88;;;1.88;;
13463;SDS011;6804;48.774;9.174;2022-08-02T05:44:18;2.55;;;1.80;;
13463;SDS011;6804;48.774;9.174;2022-08-02T05:46:51;3.55;;;1.90;;
13463;SDS011;6804;48.774;9.174;2022-08-02T05:49:18;3.08;;;1.92;;
13463;SDS011;6804;48.774;9.174;2022-08-02T05:51:51;3.63;;;2.20;;
13463;SDS011;6804;48.774;9.174;2022-08-02T05:54:30;4.60;;;2.25;;
13463;SDS011;6804;48.774;9.174;2022-08-02T05:57:03;3.15;;;2.20;;
13463;SDS011;6804;48.774;9.174;2022-08-02T05:59:37;3.70;;;2.20;;
13463;SDS011;6804;48.774;9.174;2022-08-02T06:02:15;3.85;;;2.30;;
13463;SDS011;6804;48.774;9.174;2022-08-02T06:04:58;3.83;;;2.20;;
13463;SDS011;6804;48.774;9.174;2022-08-02T06:07:30;2.58;;;1.90;;
13463;SDS011;6804;48.774;9.174;2022-08-02T06:10:03;5.25;;;3.17;;
13463;SDS011;6804;48.774;9.174;2022-08-02T06:12:45;3.88;;;2.80;;
13463;SDS011;6804;48.774;9.174;2022-08-02T06:15:20;3.50;;;2.80;;
13463;SDS011;6804;48.774;9.174;2022-08-02T06:17:54;2.70;;;2.10;;
13463;SDS011;6804;48.774;9.174;2022-08-02T06:20:23;4.32;;;2.10;;
13463;SDS011;6804;48.774;9.174;2022-08-02T06:22:53;4.00;;;2.42;;
13463;SDS011;6804;48.774;9.174;2022-08-02T06:25:25;4.75;;;2.72;;
13463;SDS011;6804;48.774;9.174;2022-08-02T06:27:58;4.43;;;2.65;;
13463;SDS011;6804;48.774;9.174;2022-08-02T06:30:29;3.85;;;2.20;;
13463;SDS011;6804;48.774;9.174;2022-08-02T06:32:57;2.75;;;2.30;;
13463;SDS011;6804;48.774;9.174;2022-08-02T06:35:27;2.65;;;2.45;;
13463;SDS011;6804;48.774;9.174;2022-08-02T06:38:03;2.70;;;1.92;;
13463;SDS011;6804;48.774;9.174;2022-08-02T06:40:37;2.83;;;2.10;;
13463;SDS011;6804;48.774;9.174;2022-08-02T06:43:10;2.55;;;2.35;;
13463;SDS011;6804;48.774;9.174;2022-08-02T06:45:46;4.30;;;2.30;;
13463;SDS011;6804;48.774;9.174;2022-08-02T06:48:17;3.25;;;2.50;;
13463;SDS011;6804;48.774;9.174;2022-08-02T06:50:44;3.45;;;2.50;;
13463;SDS011;6804;48.774;9.174;2022-08-02T06:53:12;3.72;;;2.28;;
13463;SDS011;6804;48.774;9.174;2022-08-02T06:55:41;4.53;;;2.92;;
13463;SDS011;6804;48.774;9.174;2022-08-02T06:58:09;4.00;;;3.20;;
13463;SDS011;6804;48.774;9.174;2022-08-02T07:00:40;4.05;;;2.80;;
13463;SDS011;6804;48.774;9.174;2022-08-02T07:03:08;4.35;;;3.17;;
13463;SDS011;6804;48.774;9.174;2022-08-02T07:05:40;5.07;;;3.30;;
13463;SDS011;6804;48.774;9.174;2022-08-02T07:08:15;3.10;;;2.85;;
13463;SDS011;6804;48.774;9.174;2022-08-02T07:10:44;5.38;;;2.70;;
13463;SDS011;6804;48.774;9.174;2022-08-02T07:13:12;2.88;;;2.60;;
13463;SDS011;6804;48.774;9.174;2022-08-02T07:15:40;3.17;;;2.60;;
13463;SDS011;6804;48.774;9.174;2022-08-02T07:18:08;3.20;;;2.72;;
13463;SDS011;6804;48.774;9.174;2022-08-02T07:20:43;4.13;;;2.78;;
13463;SDS011;6804;48.774;9.174;2022-08-02T07:23:11;3.53;;;2.90;;
13463;SDS011;6804;48.774;9.174;2022-08-02T07:25:39;4.95;;;3.40;;
13463;SDS011;6804;48.774;9.174;2022-08-02T07:28:09;4.25;;;3.50;;
13463;SDS011;6804;48.774;9.174;2022-08-02T07:30:45;4.30;;;3.10;;
13463;SDS011;6804;48.774;9.174;2022-08-02T07:33:13;4.55;;;3.63;;
13463;SDS011;6804;48.774;9.174;2022-08-02T07:35:41;4.32;;;2.80;;
13463;SDS011;6804;48.774;9.174;2022-08-02T07:38:08;3.65;;;3.33;;
13463;SDS011;6804;48.774;9.174;2022-08-02T07:40:36;4.38;;;3.22;;
13463;SDS011;6804;48.774;9.174;2022-08-02T07:43:04;4.80;;;3.00;;
13463;SDS011;6804;48.774;9.174;2022-08-02T07:45:36;5.53;;;2.75;;
13463;SDS011;6804;48.774;9.174;2022-08-02T07:48:03;6.78;;;2.83;;
13463;SDS011;6804;48.774;9.174;2022-08-02T07:50:32;3.95;;;2.83;;
13463;SDS011;6804;48.774;9.174;2022-08-02T07:53:03;3.50;;;3.00;;
13463;SDS011;6804;48.774;9.174;2022-08-02T07:55:33;3.92;;;2.97;;
13463;SDS011;6804;48.774;9.174;2022-08-02T07:58:04;4.15;;;3.20;;
13463;SDS011;6804;48.774;9.174;2022-08-02T08:00:36;4.53;;;2.78;;
13463;SDS011;6804;48.774;9.174;2022-08-02T08:03:06;4.55;;;3.15;;
13463;SDS011;6804;48.774;9.174;2022-08-02T08:05:33;6.28;;;3.72;;
13463;SDS011;6804;48.774;9.174;2022-08-02T08:08:05;5.43;;;3.38;;
13463;SDS011;6804;48.774;9.174;2022-08-02T08:10:32;5.15;;;3.38;;
13463;SDS011;6804;48.774;9.174;2022-08-02T08:13:00;10.25;;;4.55;;
13463;SDS011;6804;48.774;9.174;2022-08-02T08:15:30;4.63;;;3.75;;
13463;SDS011;6804;48.774;9.174;2022-08-02T08:18:01;7.43;;;4.30;;
13463;SDS011;6804;48.774;9.174;2022-08-02T08:20:29;4.25;;;3.67;;
13463;SDS011;6804;48.774;9.174;2022-08-02T08:23:07;6.30;;;3.40;;
13463;SDS011;6804;48.774;9.174;2022-08-02T08:25:34;5.45;;;3.70;;
13463;SDS011;6804;48.774;9.174;2022-08-02T08:28:02;7.38;;;3.60;;
13463;SDS011;6804;48.774;9.174;2022-08-02T08:30:31;7.47;;;3.15;;
13463;SDS011;6804;48.774;9.174;2022-08-02T08:32:59;2.90;;;2.67;;
13463;SDS011;6804;48.774;9.174;2022-08-02T08:35:28;3.88;;;3.10;;
13463;SDS011;6804;48.774;9.174;2022-08-02T08:37:55;4.78;;;3.13;;
13463;SDS011;6804;48.774;9.174;2022-08-02T08:40:23;5.07;;;3.40;;
13463;SDS011;6804;48.774;9.174;2022-08-02T08:42:52;4.78;;;3.13;;
13463;SDS011;6804;48.774;9.174;2022-08-02T08:45:21;3.75;;;3.30;;
13463;SDS011;6804;48.774;9.174;2022-08-02T08:47:51;3.65;;;3.13;;
13463;SDS011;6804;48.774;9.174;2022-08-02T08:50:26;4.20;;;3.25;;
13463;SDS011;6804;48.774;9.174;2022-08-02T08:53:02;3.78;;;3.17;;
13463;SDS011;6804;48.774;9.174;2022-08-02T08:55:34;4.13;;;3.22;;
13463;SDS011;6804;48.774;9.174;2022-08-02T08:58:06;4.45;;;3.40;;
13463;SDS011;6804;48.774;9.174;2022-08-02T09:00:34;4.15;;;3.40;;
13463;SDS011;6804;48.774;9.174;2022-08-02T09:03:08;3.97;;;3.25;;
13463;SDS011;6804;48.774;9.174;2022-08-02T09:05:38;3.70;;;3.40;;
13463;SDS011;6804;48.774;9.174;2022-08-02T09:08:07;4.70;;;3.58;;
13463;SDS011;6804;48.774;9.174;2022-08-02T09:10:36;4.60;;;2.80;;
13463;SDS011;6804;48.774;9.174;2022-08-02T09:13:09;3.55;;;3.25;;
13463;SDS011;6804;48.774;9.174;2022-08-02T09:15:40;3.70;;;3.25;;
13463;SDS011;6804;48.774;9.174;2022-08-02T09:18:09;4.55;;;3.70;;
13463;SDS011;6804;48.774;9.174;2022-08-02T09:20:51;4.72;;;3.72;;
13463;SDS011;6804;48.774;9.174;2022-08-02T09:23:22;4.63;;;4.22;;
13463;SDS011;6804;48.774;9.174;2022-08-02T09:26:00;5.35;;;3.90;;
13463;SDS011;6804;48.774;9.174;2022-08-02T09:28:36;3.20;;;3.00;;
13463;SDS011;6804;48.774;9.174;2022-08-02T09:31:05;4.13;;;3.30;;
13463;SDS011;6804;48.774;9.174;2022-08-02T09:33:38;4.20;;;3.75;;
13463;SDS011;6804;48.774;9.174;2022-08-02T09:36:12;3.72;;;3.42;;
13463;SDS011;6804;48.774;9.174;2022-08-02T09:38:51;4.03;;;3.30;;
13463;SDS011;6804;48.774;9.174;2022-08-02T09:41:25;5.80;;;3.50;;
13463;SDS011;6804;48.774;9.174;2022-08-02T09:43:58;4.95;;;3.58;;
13463;SDS011;6804;48.774;9.174;2022-08-02T09:46:27;6.13;;;4.18;;
13463;SDS011;6804;48.774;9.174;2022-08-02T09:48:57;4.10;;;3.70;;
13463;SDS011;6804;48.774;9.174;2022-08-02T09:51:27;3.92;;;3.40;;
13463;SDS011;6804;48.774;9.174;2022-08-02T09:53:59;5.53;;;3.67;;
13463;SDS011;6804;48.774;9.174;2022-08-02T09:56:47;4.22;;;3.65;;
13463;SDS011;6804;48.774;9.174;2022-08-02T09:59:17;5.97;;;3.53;;
13463;SDS011;6804;48.774;9.174;2022-08-02T10:01:47;7.15;;;3.83;;
13463;SDS011;6804;48.774;9.174;2022-08-02T10:04:19;4.38;;;3.72;;
13463;SDS011;6804;48.774;9.174;2022-08-02T10:06:49;4.45;;;3.40;;
13463;SDS011;6804;48.774;9.174;2022-08-02T10:09:18;4.45;;;3.70;;
13463;SDS011;6804;48.774;9.174;2022-08-02T10:11:46;3.50;;;3.20;;
13463;SDS011;6804;48.774;9.174;2022-08-02T10:14:20;3.63;;;3.08;;
13463;SDS011;6804;48.774;9.174;2022-08-02T10:16:50;4.30;;;3.90;;
13463;SDS011;6804;48.774;9.174;2022-08-02T10:19:19;6.72;;;3.90;;
13463;SDS011;6804;48.774;9.174;2022-08-02T10:21:54;3.88;;;3.38;;
13463;SDS011;6804;48.774;9.174;2022-08-02T10:24:40;3.85;;;3.42;;
13463;SDS011;6804;48.774;9.174;2022-08-02T10:27:12;3.95;;;3.20;;
13463;SDS011;6804;48.774;9.174;2022-08-02T10:29:44;3.10;;;2.90;;
13463;SDS011;6804;48.774;9.174;2022-08-02T10:32:14;3.42;;;3.00;;
13463;SDS011;6804;48.774;9.174;2022-08-02T10:34:48;3.85;;;3.35;;
13463;SDS011;6804;48.774;9.174;2022-08-02T10:37:21;3.40;;;3.10;;
13463;SDS011;6804;48.774;9.174;2022-08-02T10:39:54;6.38;;;3.50;;
13463;SDS011;6804;48.774;9.174;2022-08-02T10:45:15;4.18;;;3.00;;
13463;SDS011;6804;48.774;9.174;2022-08-02T10:48:00;4.20;;;3.33;;
13463;SDS011;6804;48.774;9.174;2022-08-02T10:53:25;3.65;;;3.28;;
13463;SDS011;6804;48.774;9.174;2022-08-02T10:55:55;4.57;;;3.30;;
13463;SDS011;6804;48.774;9.174;2022-08-02T10:58:30;3.63;;;3.17;;
13463;SDS011;6804;48.774;9.174;2022-08-02T11:01:02;3.13;;;2.80;;
13463;SDS011;6804;48.774;9.174;2022-08-02T11:03:33;3.58;;;3.25;;
13463;SDS011;6804;48.774;9.174;2022-08-02T11:06:05;3.22;;;2.90;;
13463;SDS011;6804;48.774;9.174;2022-08-02T11:08:35;4.20;;;3.17;;
13463;SDS011;6804;48.774;9.174;2022-08-02T11:11:16;3.47;;;3.28;;
13463;SDS011;6804;48.774;9.174;2022-08-02T11:13:58;5.07;;;3.83;;
13463;SDS011;6804;48.774;9.174;2022-08-02T11:22:50;3.78;;;3.47;;
13463;SDS011;6804;48.774;9.174;2022-08-02T11:25:43;3.75;;;3.17;;
13463;SDS011;6804;48.774;9.174;2022-08-02T11:28:11;4.93;;;3.30;;
13463;SDS011;6804;48.774;9.174;2022-08-02T11:30:43;3.97;;;3.40;;
13463;SDS011;6804;48.774;9.174;2022-08-02T11:33:11;3.30;;;3.00;;
13463;SDS011;6804;48.774;9.174;2022-08-02T11:35:39;3.60;;;2.92;;
13463;SDS011;6804;48.774;9.174;2022-08-02T11:38:14;4.32;;;3.50;;
13463;SDS011;6804;48.774;9.174;2022-08-02T11:40:44;4.25;;;2.92;;
13463;SDS011;6804;48.774;9.174;2022-08-02T11:43:15;3.70;;;3.40;;
13463;SDS011;6804;48.774;9.174;2022-08-02T11:45:48;5.40;;;3.95;;
13463;SDS011;6804;48.774;9.174;2022-08-02T11:48:32;4.68;;;4.28;;
13463;SDS011;6804;48.774;9.174;2022-08-02T11:51:04;5.85;;;3.33;;
13463;SDS011;6804;48.774;9.174;2022-08-02T11:53:42;6.72;;;4.20;;
13463;SDS011;6804;48.774;9.174;2022-08-02T11:56:16;6.50;;;4.25;;
13463;SDS011;6804;48.774;9.174;2022-08-02T12:01:35;3.70;;;3.40;;
13463;SDS011;6804;48.774;9.174;2022-08-02T12:04:05;6.30;;;5.07;;
13463;SDS011;6804;48.774;9.174;2022-08-02T12:06:33;7.30;;;4.22;;
13463;SDS011;6804;48.774;9.174;2022-08-02T12:09:03;3.55;;;3.08;;
13463;SDS011;6804;48.774;9.174;2022-08-02T12:11:34;3.72;;;3.42;;
13463;SDS011;6804;48.774;9.174;2022-08-02T12:14:05;3.40;;;3.20;;
13463;SDS011;6804;48.774;9.174;2022-08-02T12:16:33;3.72;;;2.97;;
13463;SDS011;6804;48.774;9.174;2022-08-02T12:19:19;3.33;;;2.90;;
13463;SDS011;6804;48.774;9.174;2022-08-02T12:22:05;3.20;;;2.90;;
13463;SDS011;6804;48.774;9.174;2022-08-02T12:24:35;3.60;;;3.30;;
13463;SDS011;6804;48.774;9.174;2022-08-02T12:27:05;5.10;;;3.50;;
13463;SDS011;6804;48.774;9.174;2022-08-02T12:29:34;5.20;;;3.90;;
13463;SDS011;6804;48.774;9.174;2022-08-02T12:32:03;3.30;;;3.00;;
13463;SDS011;6804;48.774;9.174;2022-08-02T12:34:34;4.20;;;3.30;;
13463;SDS011;6804;48.774;9.174;2022-08-02T12:37:03;3.30;;;3.00;;
13463;SDS011;6804;48.774;9.174;2022-08-02T12:39:37;5.05;;;2.83;;
13463;SDS011;6804;48.774;9.174;2022-08-02T12:42:14;3.97;;;3.28;;
13463;SDS011;6804;48.774;9.174;2022-08-02T12:44:49;4.28;;;3.45;;
13463;SDS011;6804;48.774;9.174;2022-08-02T12:47:18;4.50;;;3.78;;
13463;SDS011;6804;48.774;9.174;2022-08-02T12:52:41;4.97;;;3.63;;
13463;SDS011;6804;48.774;9.174;2022-08-02T12:55:18;6.10;;;3.72;;
13463;SDS011;6804;48.774;9.174;2022-08-02T12:57:55;3.92;;;3.30;;
13463;SDS011;6804;48.774;9.174;2022-08-02T13:00:26;3.38;;;3.08;;
13463;SDS011;6804;48.774;9.174;2022-08-02T13:02:55;3.53;;;3.05;;
13463;SDS011;6804;48.774;9.174;2022-08-02T13:05:24;3.95;;;3.10;;
13463;SDS011;6804;48.774;9.174;2022-08-02T13:07:53;3.08;;;2.85;;
13463;SDS011;6804;48.774;9.174;2022-08-02T13:10:25;3.58;;;3.17;;
13463;SDS011;6804;48.774;9.174;2022-08-02T13:12:54;4.35;;;2.80;;
13463;SDS011;6804;48.774;9.174;2022-08-02T13:15:22;5.15;;;3.13;;
13463;SDS011;6804;48.774;9.174;2022-08-02T13:17:52;3.33;;;3.08;;
13463;SDS011;6804;48.774;9.174;2022-08-02T13:20:20;3.58;;;3.28;;
13463;SDS011;6804;48.774;9.174;2022-08-02T13:22:55;4.15;;;3.38;;
13463;SDS011;6804;48.774;9.174;2022-08-02T13:25:24;4.82;;;3.55;;
13463;SDS011;6804;48.774;9.174;2022-08-02T13:27:52;4.50;;;3.20;;
13463;SDS011;6804;48.774;9.174;2022-08-02T13:30:24;5.75;;;2.97;;
13463;SDS011;6804;48.774;9.174;2022-08-02T13:32:52;2.90;;;2.67;;
13463;SDS011;6804;48.774;9.174;2022-08-02T13:35:22;2.78;;;2.55;;
13463;SDS011;6804;48.774;9.174;2022-08-02T13:37:50;2.60;;;2.40;;
13463;SDS011;6804;48.774;9.174;2022-08-02T13:40:21;3.30;;;3.03;;
13463;SDS011;6804;48.774;9.174;2022-08-02T13:42:58;3.40;;;2.90;;
13463;SDS011;6804;48.774;9.174;2022-08-02T13:45:26;4.45;;;2.80;;
13463;SDS011;6804;48.774;9.174;2022-08-02T13:47:53;3.30;;;3.00;;
13463;SDS011;6804;48.774;9.174;2022-08-02T13:50:27;2.70;;;2.50;;
13463;SDS011;6804;48.774;9.174;2022-08-02T13:52:55;4.03;;;2.50;;
13463;SDS011;6804;48.774;9.174;2022-08-02T13:55:26;2.40;;;2.20;;
13463;SDS011;6804;48.774;9.174;2022-08-02T13:57:55;2.67;;;2.30;;
13463;SDS011;6804;48.774;9.174;2022-08-02T14:00:27;2.60;;;2.35;;
13463;SDS011;6804;48.774;9.174;2022-08-02T14:02:55;2.40;;;2.20;;
13463;SDS011;6804;48.774;9.174;2022-08-02T14:05:25;5.07;;;2.67;;
13463;SDS011;6804;48.774;9.174;2022-08-02T14:07:55;3.38;;;3.00;;
13463;SDS011;6804;48.774;9.174;2022-08-02T14:10:24;3.38;;;2.50;;
13463;SDS011;6804;48.774;9.174;2022-08-02T14:12:52;3.00;;;2.70;;
13463;SDS011;6804;48.774;9.174;2022-08-02T14:15:23;3.33;;;2.92;;
13463;SDS011;6804;48.774;9.174;2022-08-02T14:17:56;3.00;;;2.53;;
13463;SDS011;6804;48.774;9.174;2022-08-02T14:20:27;2.90;;;2.40;;
13463;SDS011;6804;48.774;9.174;2022-08-02T14:22:55;3.63;;;2.38;;
13463;SDS011;6804;48.774;9.174;2022-08-02T14:25:30;2.55;;;2.35;;
13463;SDS011;6804;48.774;9.174;2022-08-02T14:27:59;2.83;;;2.63;;
13463;SDS011;6804;48.774;9.174;2022-08-02T14:30:28;5.25;;;4.00;;
13463;SDS011;6804;48.774;9.174;2022-08-02T14:32:58;3.30;;;3.00;;
13463;SDS011;6804;48.774;9.174;2022-08-02T14:35:27;7.75;;;5.18;;
13463;SDS011;6804;48.774;9.174;2022-08-02T14:37:55;3.22;;;2.92;;
13463;SDS011;6804;48.774;9.174;2022-08-02T14:40:29;3.92;;;3.63;;
13463;SDS011;6804;48.774;9.174;2022-08-02T14:42:56;3.95;;;3.20;;
13463;SDS011;6804;48.774;9.174;2022-08-02T14:45:25;4.30;;;2.50;;
13463;SDS011;6804;48.774;9.174;2022-08-02T14:47:59;4.03;;;3.60;;
13463;SDS011;6804;48.774;9.174;2022-08-02T14:50:29;3.70;;;2.83;;
13463;SDS011;6804;48.774;9.174;2022-08-02T14:52:58;5.38;;;3.05;;
13463;SDS011;6804;48.774;9.174;2022-08-02T14:55:25;3.33;;;2.58;;
13463;SDS011;6804;48.774;9.174;2022-08-02T14:58:00;3.70;;;2.55;;
13463;SDS011;6804;48.774;9.174;2022-08-02T15:00:28;4.00;;;2.67;;
13463;SDS011;6804;48.774;9.174;2022-08-02T15:02:56;5.32;;;4.45;;
13463;SDS011;6804;48.774;9.174;2022-08-02T15:05:25;3.03;;;2.70;;
13463;SDS011;6804;48.774;9.174;2022-08-02T15:07:53;8.13;;;6.63;;
13463;SDS011;6804;48.774;9.174;2022-08-02T15:10:23;3.03;;;2.22;;
13463;SDS011;6804;48.774;9.174;2022-08-02T15:12:51;3.45;;;3.10;;
13463;SDS011;6804;48.774;9.174;2022-08-02T15:15:21;5.20;;;2.50;;
13463;SDS011;6804;48.774;9.174;2022-08-02T15:17:52;3.47;;;2.83;;
13463;SDS011;6804;48.774;9.174;2022-08-02T15:20:22;3.35;;;2.83;;
13463;SDS011;6804;48.774;9.174;2022-08-02T15:22:50;2.78;;;2.28;;
13463;SDS011;6804;48.774;9.174;2022-08-02T15:25:18;2.80;;;2.20;;
13463;SDS011;6804;48.774;9.174;2022-08-02T15:27:46;4.05;;;2.30;;
13463;SDS011;6804;48.774;9.174;2022-08-02T15:30:16;2.97;;;2.45;;
13463;SDS011;6804;48.774;9.174;2022-08-02T15:32:51;3.30;;;2.55;;
13463;SDS011;6804;48.774;9.174;2022-08-02T15:35:18;3.55;;;2.35;;
13463;SDS011;6804;48.774;9.174;2022-08-02T15:37:48;3.47;;;2.63;;
13463;SDS011;6804;48.774;9.174;2022-08-02T15:40:16;3.28;;;2.25;;
13463;SDS011;6804;48.774;9.174;2022-08-02T15:42:48;3.60;;;2.03;;
13463;SDS011;6804;48.774;9.174;2022-08-02T15:45:16;2.15;;;1.95;;